aviador You're here:

ETSI Decoded Metar

INGOLSTADT in GERMANY
Report Time2018-05-25 20:20:00
UTC Time2018-05-25 20:48:47
Flight Rules unknown UNKNOWN
Wind090° at 05 kt
W.Decomp.*RWY 07: 4.8 kt HW 1.5 kt RCW
W.Rank090° ranks 9
Current wind is above 090° avg. (4.3)
VisibilityN/A
Phenomena:N/A
Clouds:N/A
Expected CloudBase > 800 ft AGL from Temp-Dew spread
CeilingNone
Temp17°C (ISA +4)
Dew Point15°C (88% RH)
AAT16.8°C
QNH1020 hPa
Density Alt1,729 ft
Elevation1,214 ft
Report Wrong Elevation
Raw Report
METAR ETSI 252020Z AUTO 09005KT //// // ////// 17/15 Q1020
///=

Extra information for ETSI:More info

Metar Taf Metar & Taf Last 4 Metars F.Rules Stats Wind Profile Meteogram Temp Stats Airport Information Weather charts Add Link Nearby VenuesMetar ALERT Operation Metar Decoded Social comments